»·PEaware :: SWA3961 KABQ-KSAN

SWA3961 :: KABQ-KSAN

FLIGHT INFORMATION

Flight Status: Arrived
Operator:
Southwest Airlines
More flights by this operator :: More flights under this callsign
Pilot: Lauren G. (5641)
Aircraft: BOEING 737-300
(B733)
More flights by this aircraft type
Origin: KABQ Albuquerque Intl Sunport
United States
Destination: KSAN San Diego Intl-Lindbergh
United States
More flights between these airports :: More routes between these airports
Route: +MNZNO3 SJN J18 HOGGZ LUCKI1
File this flight plan on PilotEdge
Remarks:
Altitude:
(Current/Filed)
36,000ft
Speed:
(Current/Filed)
435kts
Departed: 06-Oct-18 10:09 AM
Arrived: 06-Oct-18 11:47 AM
Distance/Time
Traveled:
545nm/1:38
Distance/Time
To Go:
Arrived

Flight Plot

Page will automatically refresh every two minutes.

Flight plan parsing failed; only flown route is shown


Map Options




Map Legend


Flown Route
Filed Route
Departure Airport
Arrival Airport
Navaid (VOR, NDB)
Fix

Horizontal Profiles

Position Reports

Time Latitude Longitude Heading Altitude Ground
Speed
06-Oct-18 09:27 35.047867 -106.614754 180 5316ft 0kts
06-Oct-18 09:28 35.047867 -106.614754 180 5316ft 0kts
06-Oct-18 09:29 35.047867 -106.614754 180 5316ft 0kts
06-Oct-18 09:30 35.047867 -106.614754 180 5316ft 0kts
06-Oct-18 09:31 35.047867 -106.614754 180 5316ft 0kts
06-Oct-18 09:32 35.047867 -106.614754 180 5316ft 0kts
06-Oct-18 09:33 35.047867 -106.614754 180 5316ft 0kts
06-Oct-18 09:34 35.047867 -106.614754 180 5316ft 0kts
06-Oct-18 09:35 35.047867 -106.614754 180 5316ft 0kts
06-Oct-18 09:36 35.047867 -106.614754 180 5316ft 0kts
06-Oct-18 09:37 35.047867 -106.614754 180 5316ft 0kts
06-Oct-18 09:38 35.047867 -106.614754 180 5316ft 0kts
06-Oct-18 09:39 35.047867 -106.614754 180 5316ft 0kts
06-Oct-18 09:40 35.047867 -106.614754 180 5316ft 0kts
06-Oct-18 09:41 35.047867 -106.614754 180 5316ft 0kts
06-Oct-18 09:42 35.047867 -106.614754 180 5316ft 0kts
06-Oct-18 09:43 35.047867 -106.614754 180 5316ft 0kts
06-Oct-18 09:44 35.047867 -106.614754 180 5316ft 0kts
06-Oct-18 09:45 35.047867 -106.614754 180 5316ft 0kts
06-Oct-18 09:46 35.047867 -106.614754 180 5316ft 0kts
06-Oct-18 09:47 35.047867 -106.614754 180 5316ft 0kts
06-Oct-18 09:48 35.047868 -106.614754 180 5316ft 0kts
06-Oct-18 09:49 35.047868 -106.614754 180 5316ft 0kts
06-Oct-18 09:50 35.047868 -106.614754 180 5316ft 0kts
06-Oct-18 09:51 35.047868 -106.614754 180 5316ft 0kts
06-Oct-18 09:52 35.047868 -106.614754 180 5316ft 0kts
06-Oct-18 09:53 35.047868 -106.614754 180 5316ft 0kts
06-Oct-18 09:54 35.047868 -106.614754 180 5316ft 0kts
06-Oct-18 09:55 35.047868 -106.614754 180 5316ft 0kts
06-Oct-18 09:56 35.047868 -106.614754 180 5316ft 0kts
06-Oct-18 09:57 35.047868 -106.614754 180 5316ft 0kts
06-Oct-18 09:58 35.047868 -106.614754 180 5316ft 0kts
06-Oct-18 09:59 35.047868 -106.614754 180 5316ft 0kts
06-Oct-18 10:00 35.047868 -106.614754 180 5316ft 0kts
06-Oct-18 10:01 35.047868 -106.614754 180 5316ft 0kts
06-Oct-18 10:02 35.047868 -106.614754 180 5316ft 0kts
06-Oct-18 10:03 35.048062 -106.614753 180 5316ft 2kts
06-Oct-18 10:04 35.048377 -106.615021 86 5316ft 0kts
06-Oct-18 10:05 35.048355 -106.614603 90 5316ft 0kts
06-Oct-18 10:06 35.048355 -106.614584 90 5316ft 0kts
06-Oct-18 10:07 35.047741 -106.613073 177 5316ft 13kts
06-Oct-18 10:08 35.045566 -106.616874 270 5316ft 21kts
06-Oct-18 10:09 35.045248 -106.621349 188 5316ft 0kts
06-Oct-18 10:10 35.044365 -106.620753 89 5316ft 0kts
06-Oct-18 10:11 35.044214 -106.591837 93 5504ft 177kts
06-Oct-18 10:12 35.047473 -106.520506 96 6728ft 248kts
06-Oct-18 10:13 34.990678 -106.498807 197 8518ft 275kts
06-Oct-18 10:14 34.914870 -106.513983 184 9586ft 284kts
06-Oct-18 10:15 34.837695 -106.517664 183 12590ft 284kts
06-Oct-18 10:16 34.781728 -106.582946 244 14052ft 336kts
06-Oct-18 10:17 34.744031 -106.689203 242 16504ft 349kts
06-Oct-18 10:18 34.702131 -106.796728 241 18900ft 361kts
06-Oct-18 10:19 34.660260 -106.904052 242 20957ft 371kts
06-Oct-18 10:20 34.615461 -107.018549 243 22863ft 383kts
06-Oct-18 10:21 34.579948 -107.139087 251 24575ft 394kts
06-Oct-18 10:22 34.548232 -107.267407 251 26207ft 403kts
06-Oct-18 10:23 34.515391 -107.399276 251 27768ft 412kts
06-Oct-18 10:24 34.482324 -107.531378 252 29456ft 411kts
06-Oct-18 10:25 34.454822 -107.640728 252 30944ft 406kts
06-Oct-18 10:26 34.432321 -107.795140 268 32687ft 404kts
06-Oct-18 10:27 34.432904 -107.923518 267 33926ft 400kts
06-Oct-18 10:28 34.432730 -108.034833 267 34838ft 398kts
06-Oct-18 10:29 34.432263 -108.190803 267 35900ft 397kts
06-Oct-18 10:30 34.431833 -108.302358 267 36075ft 401kts
06-Oct-18 10:31 34.431052 -108.458076 267 36054ft 399kts
06-Oct-18 10:32 34.430371 -108.570222 267 36038ft 402kts
06-Oct-18 10:33 34.429430 -108.701907 266 36016ft 401kts
06-Oct-18 10:34 34.428298 -108.836513 266 36021ft 402kts
06-Oct-18 10:35 34.426981 -108.971879 266 36021ft 402kts
06-Oct-18 10:36 34.425590 -109.104695 268 36024ft 395kts
06-Oct-18 10:37 34.395088 -109.231416 249 36017ft 397kts
06-Oct-18 10:38 34.353242 -109.354538 251 36025ft 397kts
06-Oct-18 10:39 34.313458 -109.472463 250 35988ft 377kts
06-Oct-18 10:40 34.273561 -109.590342 250 36048ft 382kts
06-Oct-18 10:41 34.239102 -109.691043 250 36052ft 382kts
06-Oct-18 10:42 34.198714 -109.809421 250 36078ft 383kts
06-Oct-18 10:43 34.158319 -109.927478 250 36074ft 382kts
06-Oct-18 10:44 34.118998 -110.041978 250 36075ft 382kts
06-Oct-18 10:45 34.078669 -110.158955 250 36075ft 382kts
06-Oct-18 10:46 34.039295 -110.272746 250 36075ft 382kts
06-Oct-18 10:47 33.998350 -110.389748 250 36075ft 382kts
06-Oct-18 10:48 33.957194 -110.507077 250 36075ft 382kts
06-Oct-18 10:49 33.916268 -110.624015 250 36076ft 382kts
06-Oct-18 10:50 33.876661 -110.736384 249 36046ft 382kts
06-Oct-18 10:51 33.836318 -110.850512 249 35991ft 382kts
06-Oct-18 10:52 33.793816 -110.970238 250 35929ft 395kts
06-Oct-18 10:53 33.751054 -111.090203 250 35970ft 396kts
06-Oct-18 10:54 33.708202 -111.210260 250 35934ft 395kts
06-Oct-18 10:55 33.665686 -111.328594 250 35896ft 395kts
06-Oct-18 10:56 33.623305 -111.446500 250 35885ft 395kts
06-Oct-18 10:57 33.580245 -111.566013 250 35887ft 395kts
06-Oct-18 10:58 33.537443 -111.684455 250 35866ft 396kts
06-Oct-18 10:59 33.493609 -111.805364 250 35887ft 395kts
06-Oct-18 11:00 33.450669 -111.923242 250 35873ft 395kts
06-Oct-18 11:01 33.393177 -112.030519 236 35861ft 404kts
06-Oct-18 11:02 33.323694 -112.133057 237 35865ft 403kts
06-Oct-18 11:03 33.253880 -112.236662 236 35868ft 404kts
06-Oct-18 11:04 33.183995 -112.340097 237 35882ft 406kts
06-Oct-18 11:05 33.113628 -112.443941 237 35874ft 406kts
06-Oct-18 11:06 33.042557 -112.548553 236 35836ft 413kts
06-Oct-18 11:07 32.970587 -112.654171 235 35821ft 420kts
06-Oct-18 11:08 32.941571 -112.782331 263 35840ft 413kts
06-Oct-18 11:09 32.923817 -112.917452 262 35860ft 415kts
06-Oct-18 11:10 32.905582 -113.052069 263 35859ft 415kts
06-Oct-18 11:11 32.888011 -113.179020 262 35862ft 415kts
06-Oct-18 11:12 32.869849 -113.309320 262 35858ft 415kts
06-Oct-18 11:13 32.851584 -113.439039 263 35830ft 415kts
06-Oct-18 11:14 32.832740 -113.572914 263 35804ft 415kts
06-Oct-18 11:15 32.813934 -113.706656 262 35798ft 415kts
06-Oct-18 11:16 32.794716 -113.841228 262 35807ft 416kts
06-Oct-18 11:17 32.775900 -113.975260 267 35801ft 414kts
06-Oct-18 11:18 32.776252 -114.111112 274 35806ft 413kts
06-Oct-18 11:19 32.782023 -114.246416 273 35804ft 413kts
06-Oct-18 11:20 32.787677 -114.382307 278 35801ft 413kts
06-Oct-18 11:21 32.820615 -114.509243 288 35804ft 412kts
06-Oct-18 11:22 32.856287 -114.637280 287 35806ft 414kts
06-Oct-18 11:23 32.879503 -114.765645 269 35805ft 414kts
06-Oct-18 11:24 32.875498 -114.902315 269 35824ft 414kts
06-Oct-18 11:25 32.872459 -115.037355 270 34819ft 414kts
06-Oct-18 11:26 32.869222 -115.176142 270 31163ft 419kts
06-Oct-18 11:27 32.865853 -115.313495 270 27832ft 419kts
06-Oct-18 11:28 32.850219 -115.446470 262 25529ft 396kts
06-Oct-18 11:29 32.830888 -115.570034 261 23872ft 376kts
06-Oct-18 11:30 32.815088 -115.666658 260 22812ft 373kts
06-Oct-18 11:31 32.795607 -115.785712 260 21482ft 365kts
06-Oct-18 11:32 32.780571 -115.908446 266 19886ft 381kts
06-Oct-18 11:33 32.771756 -116.028444 266 17844ft 361kts
06-Oct-18 11:34 32.763039 -116.144237 266 15932ft 351kts
06-Oct-18 11:35 32.754361 -116.257622 266 14099ft 339kts
06-Oct-18 11:36 32.746075 -116.362709 265 12753ft 310kts
06-Oct-18 11:37 32.738431 -116.460767 265 11168ft 291kts
06-Oct-18 11:38 32.730079 -116.554617 264 9586ft 284kts
06-Oct-18 11:39 32.721639 -116.641842 263 8229ft 257kts
06-Oct-18 11:40 32.718559 -116.677447 264 7801ft 246kts
06-Oct-18 11:41 32.712312 -116.756899 264 7046ft 241kts
06-Oct-18 11:42 32.701455 -116.837475 249 5541ft 253kts
06-Oct-18 11:43 32.679389 -116.909749 250 4995ft 220kts
06-Oct-18 11:44 32.681435 -116.975154 283 4667ft 200kts
06-Oct-18 11:45 32.696276 -117.036510 283 3208ft 208kts
06-Oct-18 11:46 32.711422 -117.097315 285 1570ft 177kts
06-Oct-18 11:47 32.722447 -117.144271 283 779ft 143kts
06-Oct-18 11:48 32.732785 -117.186788 287 20ft 117kts
06-Oct-18 11:49 32.734853 -117.198347 188 19ft 0kts
06-Oct-18 11:50 32.734853 -117.198347 188 19ft 0kts
06-Oct-18 11:51 32.733831 -117.197533 225 19ft 7kts
06-Oct-18 11:52 32.733705 -117.197819 248 19ft 0kts

Navigation Log

Ident Type
Flight plan parsing failed, navigation log unavailable